Mosul, Iraq
Current Conditions -  °F | °C
As of 4:00 PM on Friday 28 Nov 2014 (Local Time) from ORER Reporting Station
Scattered Clouds Scattered Clouds  
Wind Chill: 57°   Ceiling: Unl
Heat Index: 57°   Visibility: 6mi
Dew Point: 50°   Wind: 2mph
Humidity: 77%   Direction: NA
Pressure: 30.09"   Gusts: NA
Location:  36.34°N, 43.14°E
Report Text: ORER 281300Z VRB02KT 9000 FEW025 SCT030 14/10 Q1019
Loading
Personal Weather Stations






























Interactive Weather Map New forecast layout! Learn more

10-Day Weather Forecast

Advertisements
Track Severe Weather on mobile